sensor_id;sensor_type;location;lat;lon;timestamp;temperature;humidity
46336;DHT22;31365;48.858;8.530;2022-08-03T00:02:18;21.60;93.00
46336;DHT22;31365;48.858;8.530;2022-08-03T00:04:47;21.60;93.10
46336;DHT22;31365;48.858;8.530;2022-08-03T00:07:16;21.40;93.00
46336;DHT22;31365;48.858;8.530;2022-08-03T00:09:44;21.50;93.40
46336;DHT22;31365;48.858;8.530;2022-08-03T00:12:13;21.40;93.40
46336;DHT22;31365;48.858;8.530;2022-08-03T00:14:42;21.40;93.50
46336;DHT22;31365;48.858;8.530;2022-08-03T00:17:11;21.40;93.80
46336;DHT22;31365;48.858;8.530;2022-08-03T00:19:39;21.30;93.80
46336;DHT22;31365;48.858;8.530;2022-08-03T00:22:09;21.30;93.90
46336;DHT22;31365;48.858;8.530;2022-08-03T00:24:38;21.20;93.70
46336;DHT22;31365;48.858;8.530;2022-08-03T00:27:06;21.20;93.60
46336;DHT22;31365;48.858;8.530;2022-08-03T00:29:35;21.20;93.60
46336;DHT22;31365;48.858;8.530;2022-08-03T00:32:23;21.20;93.60
46336;DHT22;31365;48.858;8.530;2022-08-03T00:34:52;21.20;93.50
46336;DHT22;31365;48.858;8.530;2022-08-03T00:37:26;21.30;93.40
46336;DHT22;31365;48.858;8.530;2022-08-03T00:40:10;21.30;93.30
46336;DHT22;31365;48.858;8.530;2022-08-03T00:42:50;21.30;93.20
46336;DHT22;31365;48.858;8.530;2022-08-03T00:45:23;21.30;93.20
46336;DHT22;31365;48.858;8.530;2022-08-03T00:47:53;21.30;93.10
46336;DHT22;31365;48.858;8.530;2022-08-03T00:50:23;21.20;93.10
46336;DHT22;31365;48.858;8.530;2022-08-03T00:52:57;21.30;93.10
46336;DHT22;31365;48.858;8.530;2022-08-03T00:55:29;21.30;93.10
46336;DHT22;31365;48.858;8.530;2022-08-03T00:57:58;21.20;93.00
46336;DHT22;31365;48.858;8.530;2022-08-03T01:00:33;21.30;93.10
46336;DHT22;31365;48.858;8.530;2022-08-03T01:03:05;21.20;93.00
46336;DHT22;31365;48.858;8.530;2022-08-03T01:05:42;21.20;93.10
46336;DHT22;31365;48.858;8.530;2022-08-03T01:08:21;21.20;93.00
46336;DHT22;31365;48.858;8.530;2022-08-03T01:10:59;21.20;93.10
46336;DHT22;31365;48.858;8.530;2022-08-03T01:13:39;21.10;93.10
46336;DHT22;31365;48.858;8.530;2022-08-03T01:16:39;21.10;93.20
46336;DHT22;31365;48.858;8.530;2022-08-03T01:19:29;21.10;93.10
46336;DHT22;31365;48.858;8.530;2022-08-03T01:22:24;21.00;93.10
46336;DHT22;31365;48.858;8.530;2022-08-03T01:25:14;21.10;93.10
46336;DHT22;31365;48.858;8.530;2022-08-03T01:28:01;21.10;93.10
46336;DHT22;31365;48.858;8.530;2022-08-03T01:30:47;21.10;93.10
46336;DHT22;31365;48.858;8.530;2022-08-03T01:33:21;21.00;93.10
46336;DHT22;31365;48.858;8.530;2022-08-03T01:35:57;21.10;93.10
46336;DHT22;31365;48.858;8.530;2022-08-03T01:38:29;21.10;93.10
46336;DHT22;31365;48.858;8.530;2022-08-03T01:41:05;21.00;93.10
46336;DHT22;31365;48.858;8.530;2022-08-03T01:43:37;21.00;93.10
46336;DHT22;31365;48.858;8.530;2022-08-03T01:46:29;21.00;93.10
46336;DHT22;31365;48.858;8.530;2022-08-03T01:49:00;21.00;93.50
46336;DHT22;31365;48.858;8.530;2022-08-03T01:51:36;21.00;93.20
46336;DHT22;31365;48.858;8.530;2022-08-03T01:54:27;20.90;93.20
46336;DHT22;31365;48.858;8.530;2022-08-03T01:56:58;20.90;93.30
46336;DHT22;31365;48.858;8.530;2022-08-03T01:59:28;20.90;93.30
46336;DHT22;31365;48.858;8.530;2022-08-03T02:02:01;20.90;93.30
46336;DHT22;31365;48.858;8.530;2022-08-03T02:04:52;20.90;93.60
46336;DHT22;31365;48.858;8.530;2022-08-03T02:07:23;20.90;93.20
46336;DHT22;31365;48.858;8.530;2022-08-03T02:09:54;20.90;93.20
46336;DHT22;31365;48.858;8.530;2022-08-03T02:12:26;20.90;93.20
46336;DHT22;31365;48.858;8.530;2022-08-03T02:14:57;20.80;93.20
46336;DHT22;31365;48.858;8.530;2022-08-03T02:17:29;20.80;93.30
46336;DHT22;31365;48.858;8.530;2022-08-03T02:20:08;20.80;93.30
46336;DHT22;31365;48.858;8.530;2022-08-03T02:22:40;20.80;93.30
46336;DHT22;31365;48.858;8.530;2022-08-03T02:25:11;20.80;93.30
46336;DHT22;31365;48.858;8.530;2022-08-03T02:27:47;20.70;93.40
46336;DHT22;31365;48.858;8.530;2022-08-03T02:30:19;20.60;93.50
46336;DHT22;31365;48.858;8.530;2022-08-03T02:32:54;20.60;93.60
46336;DHT22;31365;48.858;8.530;2022-08-03T02:35:26;20.60;93.60
46336;DHT22;31365;48.858;8.530;2022-08-03T02:38:00;20.60;93.70
46336;DHT22;31365;48.858;8.530;2022-08-03T02:40:31;20.60;93.80
46336;DHT22;31365;48.858;8.530;2022-08-03T02:43:06;20.50;93.80
46336;DHT22;31365;48.858;8.530;2022-08-03T02:45:42;20.50;93.80
46336;DHT22;31365;48.858;8.530;2022-08-03T02:48:17;20.50;94.00
46336;DHT22;31365;48.858;8.530;2022-08-03T02:50:51;20.40;94.10
46336;DHT22;31365;48.858;8.530;2022-08-03T02:53:23;20.40;94.10
46336;DHT22;31365;48.858;8.530;2022-08-03T02:55:54;20.40;94.10
46336;DHT22;31365;48.858;8.530;2022-08-03T02:58:25;20.20;94.10
46336;DHT22;31365;48.858;8.530;2022-08-03T03:00:55;20.30;94.20
46336;DHT22;31365;48.858;8.530;2022-08-03T03:03:26;20.30;94.20
46336;DHT22;31365;48.858;8.530;2022-08-03T03:06:01;20.20;94.20
46336;DHT22;31365;48.858;8.530;2022-08-03T03:08:32;20.20;94.20
46336;DHT22;31365;48.858;8.530;2022-08-03T03:11:04;20.20;94.20
46336;DHT22;31365;48.858;8.530;2022-08-03T03:13:35;20.30;94.30
46336;DHT22;31365;48.858;8.530;2022-08-03T03:16:06;20.30;94.20
46336;DHT22;31365;48.858;8.530;2022-08-03T03:18:37;20.30;94.20
46336;DHT22;31365;48.858;8.530;2022-08-03T03:21:08;20.30;94.10
46336;DHT22;31365;48.858;8.530;2022-08-03T03:23:39;20.30;94.00
46336;DHT22;31365;48.858;8.530;2022-08-03T03:26:08;20.40;94.00
46336;DHT22;31365;48.858;8.530;2022-08-03T03:28:37;20.30;93.90
46336;DHT22;31365;48.858;8.530;2022-08-03T03:31:06;20.30;93.90
46336;DHT22;31365;48.858;8.530;2022-08-03T03:33:37;20.40;93.90
46336;DHT22;31365;48.858;8.530;2022-08-03T03:36:06;20.30;93.90
46336;DHT22;31365;48.858;8.530;2022-08-03T03:38:35;20.30;94.30
46336;DHT22;31365;48.858;8.530;2022-08-03T03:41:04;20.30;94.00
46336;DHT22;31365;48.858;8.530;2022-08-03T03:43:33;20.40;94.00
46336;DHT22;31365;48.858;8.530;2022-08-03T03:46:01;20.30;94.00
46336;DHT22;31365;48.858;8.530;2022-08-03T03:48:30;20.30;94.10
46336;DHT22;31365;48.858;8.530;2022-08-03T03:51:01;20.30;94.10
46336;DHT22;31365;48.858;8.530;2022-08-03T03:53:30;20.30;94.40
46336;DHT22;31365;48.858;8.530;2022-08-03T03:55:58;20.30;94.00
46336;DHT22;31365;48.858;8.530;2022-08-03T03:58:30;20.30;93.90
46336;DHT22;31365;48.858;8.530;2022-08-03T04:01:00;20.40;93.80
46336;DHT22;31365;48.858;8.530;2022-08-03T04:03:28;20.40;93.80
46336;DHT22;31365;48.858;8.530;2022-08-03T04:05:57;20.40;93.70
46336;DHT22;31365;48.858;8.530;2022-08-03T04:08:45;20.40;93.70
46336;DHT22;31365;48.858;8.530;2022-08-03T04:11:44;20.40;93.70
46336;DHT22;31365;48.858;8.530;2022-08-03T04:14:27;20.50;93.80
46336;DHT22;31365;48.858;8.530;2022-08-03T04:17:02;20.50;93.70
46336;DHT22;31365;48.858;8.530;2022-08-03T04:19:35;20.50;93.70
46336;DHT22;31365;48.858;8.530;2022-08-03T04:22:11;20.50;93.60
46336;DHT22;31365;48.858;8.530;2022-08-03T04:24:44;20.50;93.80
46336;DHT22;31365;48.858;8.530;2022-08-03T04:27:19;20.50;93.80
46336;DHT22;31365;48.858;8.530;2022-08-03T04:29:52;20.50;93.70
46336;DHT22;31365;48.858;8.530;2022-08-03T04:32:25;20.50;93.60
46336;DHT22;31365;48.858;8.530;2022-08-03T04:34:55;20.50;93.60
46336;DHT22;31365;48.858;8.530;2022-08-03T04:37:34;20.60;93.50
46336;DHT22;31365;48.858;8.530;2022-08-03T04:40:08;20.70;93.50
46336;DHT22;31365;48.858;8.530;2022-08-03T04:42:42;20.70;93.50
46336;DHT22;31365;48.858;8.530;2022-08-03T04:45:14;20.70;93.60
46336;DHT22;31365;48.858;8.530;2022-08-03T04:47:44;20.70;93.60
46336;DHT22;31365;48.858;8.530;2022-08-03T04:50:14;20.70;93.60
46336;DHT22;31365;48.858;8.530;2022-08-03T04:53:04;20.80;93.60
46336;DHT22;31365;48.858;8.530;2022-08-03T04:55:34;20.80;93.50
46336;DHT22;31365;48.858;8.530;2022-08-03T04:58:03;20.90;93.40
46336;DHT22;31365;48.858;8.530;2022-08-03T05:00:32;20.90;93.30
46336;DHT22;31365;48.858;8.530;2022-08-03T05:03:01;20.90;93.40
46336;DHT22;31365;48.858;8.530;2022-08-03T05:05:45;20.90;93.40
46336;DHT22;31365;48.858;8.530;2022-08-03T05:08:17;20.90;93.40
46336;DHT22;31365;48.858;8.530;2022-08-03T05:10:54;21.00;93.50
46336;DHT22;31365;48.858;8.530;2022-08-03T05:13:25;21.00;93.50
46336;DHT22;31365;48.858;8.530;2022-08-03T05:15:54;21.10;93.50
46336;DHT22;31365;48.858;8.530;2022-08-03T05:18:22;21.20;93.90
46336;DHT22;31365;48.858;8.530;2022-08-03T05:20:51;21.20;93.50
46336;DHT22;31365;48.858;8.530;2022-08-03T05:23:21;21.20;93.40
46336;DHT22;31365;48.858;8.530;2022-08-03T05:25:50;21.40;93.30
46336;DHT22;31365;48.858;8.530;2022-08-03T05:28:18;21.50;93.20
46336;DHT22;31365;48.858;8.530;2022-08-03T05:30:47;21.50;93.00
46336;DHT22;31365;48.858;8.530;2022-08-03T05:33:15;21.70;92.70
46336;DHT22;31365;48.858;8.530;2022-08-03T05:35:43;21.80;92.80
46336;DHT22;31365;48.858;8.530;2022-08-03T05:38:31;21.90;92.70
46336;DHT22;31365;48.858;8.530;2022-08-03T05:41:02;22.00;92.70
46336;DHT22;31365;48.858;8.530;2022-08-03T05:43:51;22.10;92.60
46336;DHT22;31365;48.858;8.530;2022-08-03T05:46:20;22.20;92.60
46336;DHT22;31365;48.858;8.530;2022-08-03T05:48:50;22.40;92.80
46336;DHT22;31365;48.858;8.530;2022-08-03T05:51:18;22.50;92.70
46336;DHT22;31365;48.858;8.530;2022-08-03T05:53:48;22.60;92.80
46336;DHT22;31365;48.858;8.530;2022-08-03T05:56:20;22.70;92.90
46336;DHT22;31365;48.858;8.530;2022-08-03T05:58:50;22.80;92.80
46336;DHT22;31365;48.858;8.530;2022-08-03T06:01:20;22.90;92.80
46336;DHT22;31365;48.858;8.530;2022-08-03T06:03:49;23.00;93.20
46336;DHT22;31365;48.858;8.530;2022-08-03T06:06:18;23.20;93.20
46336;DHT22;31365;48.858;8.530;2022-08-03T06:08:48;23.20;93.00
46336;DHT22;31365;48.858;8.530;2022-08-03T06:11:17;23.20;93.20
46336;DHT22;31365;48.858;8.530;2022-08-03T06:13:45;23.30;93.20
46336;DHT22;31365;48.858;8.530;2022-08-03T06:16:14;23.40;93.00
46336;DHT22;31365;48.858;8.530;2022-08-03T06:18:43;23.40;92.90
46336;DHT22;31365;48.858;8.530;2022-08-03T06:21:11;23.50;93.00
46336;DHT22;31365;48.858;8.530;2022-08-03T06:23:43;23.60;92.80
46336;DHT22;31365;48.858;8.530;2022-08-03T06:26:24;23.80;93.10
46336;DHT22;31365;48.858;8.530;2022-08-03T06:28:54;23.90;93.00
46336;DHT22;31365;48.858;8.530;2022-08-03T06:31:24;24.00;92.90
46336;DHT22;31365;48.858;8.530;2022-08-03T06:34:02;24.10;92.60
46336;DHT22;31365;48.858;8.530;2022-08-03T06:36:52;24.20;92.50
46336;DHT22;31365;48.858;8.530;2022-08-03T06:39:28;24.40;92.50
46336;DHT22;31365;48.858;8.530;2022-08-03T06:41:58;24.50;92.10
46336;DHT22;31365;48.858;8.530;2022-08-03T06:44:26;24.60;91.80
46336;DHT22;31365;48.858;8.530;2022-08-03T06:46:54;24.80;91.60
46336;DHT22;31365;48.858;8.530;2022-08-03T06:49:23;24.90;91.60
46336;DHT22;31365;48.858;8.530;2022-08-03T06:51:51;25.00;91.70
46336;DHT22;31365;48.858;8.530;2022-08-03T06:54:31;25.00;91.30
46336;DHT22;31365;48.858;8.530;2022-08-03T06:57:00;25.20;91.20
46336;DHT22;31365;48.858;8.530;2022-08-03T06:59:30;25.30;90.90
46336;DHT22;31365;48.858;8.530;2022-08-03T07:02:19;25.50;90.70
46336;DHT22;31365;48.858;8.530;2022-08-03T07:04:47;25.60;90.90
46336;DHT22;31365;48.858;8.530;2022-08-03T07:07:16;25.70;90.50
46336;DHT22;31365;48.858;8.530;2022-08-03T07:09:45;25.90;90.50
46336;DHT22;31365;48.858;8.530;2022-08-03T07:12:29;25.90;90.60
46336;DHT22;31365;48.858;8.530;2022-08-03T07:14:58;26.10;90.40
46336;DHT22;31365;48.858;8.530;2022-08-03T07:17:30;26.20;90.10
46336;DHT22;31365;48.858;8.530;2022-08-03T07:20:02;26.20;89.70
46336;DHT22;31365;48.858;8.530;2022-08-03T07:22:32;26.30;89.60
46336;DHT22;31365;48.858;8.530;2022-08-03T07:25:00;26.40;89.80
46336;DHT22;31365;48.858;8.530;2022-08-03T07:27:32;26.50;90.00
46336;DHT22;31365;48.858;8.530;2022-08-03T07:30:01;26.60;89.80
46336;DHT22;31365;48.858;8.530;2022-08-03T07:32:32;26.70;89.50
46336;DHT22;31365;48.858;8.530;2022-08-03T07:35:16;26.80;88.20
46336;DHT22;31365;48.858;8.530;2022-08-03T07:37:51;26.80;88.10
46336;DHT22;31365;48.858;8.530;2022-08-03T07:40:21;26.80;88.20
46336;DHT22;31365;48.858;8.530;2022-08-03T07:42:57;26.90;88.00
46336;DHT22;31365;48.858;8.530;2022-08-03T07:45:26;27.00;88.80
46336;DHT22;31365;48.858;8.530;2022-08-03T07:47:54;27.00;88.80
46336;DHT22;31365;48.858;8.530;2022-08-03T07:50:23;27.10;88.70
46336;DHT22;31365;48.858;8.530;2022-08-03T07:52:52;27.10;88.60
46336;DHT22;31365;48.858;8.530;2022-08-03T07:55:23;27.20;89.20
46336;DHT22;31365;48.858;8.530;2022-08-03T07:58:06;27.30;88.80
46336;DHT22;31365;48.858;8.530;2022-08-03T08:00:38;27.30;88.90
46336;DHT22;31365;48.858;8.530;2022-08-03T08:03:07;27.40;87.60
46336;DHT22;31365;48.858;8.530;2022-08-03T08:05:36;27.50;87.30
46336;DHT22;31365;48.858;8.530;2022-08-03T08:08:05;27.50;87.30
46336;DHT22;31365;48.858;8.530;2022-08-03T08:10:34;27.70;87.30
46336;DHT22;31365;48.858;8.530;2022-08-03T08:13:04;27.80;88.10
46336;DHT22;31365;48.858;8.530;2022-08-03T08:15:33;27.90;86.80
46336;DHT22;31365;48.858;8.530;2022-08-03T08:18:08;28.00;86.10
46336;DHT22;31365;48.858;8.530;2022-08-03T08:20:36;28.00;86.30
46336;DHT22;31365;48.858;8.530;2022-08-03T08:23:08;28.00;85.50
46336;DHT22;31365;48.858;8.530;2022-08-03T08:25:56;28.10;85.70
46336;DHT22;31365;48.858;8.530;2022-08-03T08:28:25;28.10;86.70
46336;DHT22;31365;48.858;8.530;2022-08-03T08:30:59;28.30;85.50
46336;DHT22;31365;48.858;8.530;2022-08-03T08:33:27;28.40;85.20
46336;DHT22;31365;48.858;8.530;2022-08-03T08:36:15;28.40;85.40
46336;DHT22;31365;48.858;8.530;2022-08-03T08:38:44;28.50;84.70
46336;DHT22;31365;48.858;8.530;2022-08-03T08:41:13;28.60;84.80
46336;DHT22;31365;48.858;8.530;2022-08-03T08:43:43;28.60;84.40
46336;DHT22;31365;48.858;8.530;2022-08-03T08:46:13;28.60;84.40
46336;DHT22;31365;48.858;8.530;2022-08-03T08:48:50;28.70;84.10
46336;DHT22;31365;48.858;8.530;2022-08-03T08:51:21;28.60;83.90
46336;DHT22;31365;48.858;8.530;2022-08-03T08:54:14;28.60;84.30
46336;DHT22;31365;48.858;8.530;2022-08-03T08:56:46;28.80;84.90
46336;DHT22;31365;48.858;8.530;2022-08-03T08:59:17;28.80;84.10
46336;DHT22;31365;48.858;8.530;2022-08-03T09:01:46;28.80;84.00
46336;DHT22;31365;48.858;8.530;2022-08-03T09:04:15;28.80;84.00
46336;DHT22;31365;48.858;8.530;2022-08-03T09:06:44;28.80;83.70
46336;DHT22;31365;48.858;8.530;2022-08-03T09:09:32;28.80;83.80
46336;DHT22;31365;48.858;8.530;2022-08-03T09:12:20;28.90;84.00
46336;DHT22;31365;48.858;8.530;2022-08-03T09:15:22;29.00;83.30
46336;DHT22;31365;48.858;8.530;2022-08-03T09:17:53;29.10;83.70
46336;DHT22;31365;48.858;8.530;2022-08-03T09:20:24;29.30;83.90
46336;DHT22;31365;48.858;8.530;2022-08-03T09:22:55;29.40;84.10
46336;DHT22;31365;48.858;8.530;2022-08-03T09:25:27;29.50;83.40
46336;DHT22;31365;48.858;8.530;2022-08-03T09:28:05;29.70;82.10
46336;DHT22;31365;48.858;8.530;2022-08-03T09:30:39;29.60;82.30
46336;DHT22;31365;48.858;8.530;2022-08-03T09:33:09;29.70;81.80
46336;DHT22;31365;48.858;8.530;2022-08-03T09:35:40;29.60;81.20
46336;DHT22;31365;48.858;8.530;2022-08-03T09:38:23;29.50;81.30
46336;DHT22;31365;48.858;8.530;2022-08-03T09:40:54;29.50;81.90
46336;DHT22;31365;48.858;8.530;2022-08-03T09:43:26;29.60;81.40
46336;DHT22;31365;48.858;8.530;2022-08-03T09:46:03;29.60;82.20
46336;DHT22;31365;48.858;8.530;2022-08-03T09:48:33;29.60;82.80
46336;DHT22;31365;48.858;8.530;2022-08-03T09:51:03;29.50;83.30
46336;DHT22;31365;48.858;8.530;2022-08-03T09:53:51;29.50;83.20
46336;DHT22;31365;48.858;8.530;2022-08-03T09:56:40;29.50;82.80
46336;DHT22;31365;48.858;8.530;2022-08-03T09:59:11;29.40;82.90
46336;DHT22;31365;48.858;8.530;2022-08-03T10:01:41;29.40;82.90
46336;DHT22;31365;48.858;8.530;2022-08-03T10:04:14;29.30;83.00
46336;DHT22;31365;48.858;8.530;2022-08-03T10:06:44;29.30;84.00
46336;DHT22;31365;48.858;8.530;2022-08-03T10:09:15;29.30;83.40
46336;DHT22;31365;48.858;8.530;2022-08-03T10:11:44;29.30;83.40
46336;DHT22;31365;48.858;8.530;2022-08-03T10:14:15;29.50;82.80
46336;DHT22;31365;48.858;8.530;2022-08-03T10:16:47;29.60;82.40
46336;DHT22;31365;48.858;8.530;2022-08-03T10:19:17;29.60;81.90
46336;DHT22;31365;48.858;8.530;2022-08-03T10:21:48;29.70;81.80
46336;DHT22;31365;48.858;8.530;2022-08-03T10:24:24;29.50;82.20
46336;DHT22;31365;48.858;8.530;2022-08-03T10:27:00;29.70;81.60
46336;DHT22;31365;48.858;8.530;2022-08-03T10:29:34;29.60;82.00
46336;DHT22;31365;48.858;8.530;2022-08-03T10:32:12;29.70;81.50
46336;DHT22;31365;48.858;8.530;2022-08-03T10:34:49;29.90;81.40
46336;DHT22;31365;48.858;8.530;2022-08-03T10:37:32;29.80;81.20
46336;DHT22;31365;48.858;8.530;2022-08-03T10:40:22;29.90;81.30
46336;DHT22;31365;48.858;8.530;2022-08-03T10:43:18;30.00;80.60
46336;DHT22;31365;48.858;8.530;2022-08-03T10:45:49;29.90;80.90
46336;DHT22;31365;48.858;8.530;2022-08-03T10:48:20;29.90;80.90
46336;DHT22;31365;48.858;8.530;2022-08-03T10:50:49;30.10;80.50
46336;DHT22;31365;48.858;8.530;2022-08-03T10:53:33;30.30;81.00
46336;DHT22;31365;48.858;8.530;2022-08-03T10:56:03;30.30;80.20
46336;DHT22;31365;48.858;8.530;2022-08-03T10:59:09;30.40;79.80
46336;DHT22;31365;48.858;8.530;2022-08-03T11:01:49;30.40;80.00
46336;DHT22;31365;48.858;8.530;2022-08-03T11:04:28;30.50;79.80
46336;DHT22;31365;48.858;8.530;2022-08-03T11:07:19;30.50;79.30
46336;DHT22;31365;48.858;8.530;2022-08-03T11:09:51;30.70;79.10
46336;DHT22;31365;48.858;8.530;2022-08-03T11:12:22;31.00;78.70
46336;DHT22;31365;48.858;8.530;2022-08-03T11:14:59;31.10;77.90
46336;DHT22;31365;48.858;8.530;2022-08-03T11:17:29;31.30;78.10
46336;DHT22;31365;48.858;8.530;2022-08-03T11:20:14;31.70;77.00
46336;DHT22;31365;48.858;8.530;2022-08-03T11:22:49;32.10;75.80
46336;DHT22;31365;48.858;8.530;2022-08-03T11:25:20;32.80;75.00
46336;DHT22;31365;48.858;8.530;2022-08-03T11:28:23;33.40;73.80
46336;DHT22;31365;48.858;8.530;2022-08-03T11:30:53;33.90;72.10
46336;DHT22;31365;48.858;8.530;2022-08-03T11:33:30;34.40;71.00
46336;DHT22;31365;48.858;8.530;2022-08-03T11:36:01;34.90;69.50
46336;DHT22;31365;48.858;8.530;2022-08-03T11:38:29;35.60;69.40
46336;DHT22;31365;48.858;8.530;2022-08-03T11:40:58;36.40;67.90
46336;DHT22;31365;48.858;8.530;2022-08-03T11:43:44;36.90;65.90
46336;DHT22;31365;48.858;8.530;2022-08-03T11:46:14;37.50;64.10
46336;DHT22;31365;48.858;8.530;2022-08-03T11:49:03;37.80;63.10
46336;DHT22;31365;48.858;8.530;2022-08-03T11:51:38;38.30;62.80
46336;DHT22;31365;48.858;8.530;2022-08-03T11:54:07;38.70;61.00
46336;DHT22;31365;48.858;8.530;2022-08-03T11:56:44;39.10;60.00
46336;DHT22;31365;48.858;8.530;2022-08-03T11:59:14;39.10;59.90
46336;DHT22;31365;48.858;8.530;2022-08-03T12:01:48;39.10;59.40
46336;DHT22;31365;48.858;8.530;2022-08-03T12:04:17;39.70;59.40
46336;DHT22;31365;48.858;8.530;2022-08-03T12:06:58;40.30;58.00
46336;DHT22;31365;48.858;8.530;2022-08-03T12:09:27;40.50;57.30
46336;DHT22;31365;48.858;8.530;2022-08-03T12:11:55;40.40;57.50
46336;DHT22;31365;48.858;8.530;2022-08-03T12:14:27;40.50;57.40
46336;DHT22;31365;48.858;8.530;2022-08-03T12:17:16;40.70;56.90
46336;DHT22;31365;48.858;8.530;2022-08-03T12:19:45;40.90;57.00
46336;DHT22;31365;48.858;8.530;2022-08-03T12:22:15;41.40;55.90
46336;DHT22;31365;48.858;8.530;2022-08-03T12:24:44;41.70;55.40
46336;DHT22;31365;48.858;8.530;2022-08-03T12:27:22;42.10;55.00
46336;DHT22;31365;48.858;8.530;2022-08-03T12:29:53;42.70;54.20
46336;DHT22;31365;48.858;8.530;2022-08-03T12:32:25;42.90;53.70
46336;DHT22;31365;48.858;8.530;2022-08-03T12:34:55;43.10;52.90
46336;DHT22;31365;48.858;8.530;2022-08-03T12:37:28;42.90;52.90
46336;DHT22;31365;48.858;8.530;2022-08-03T12:39:59;43.00;53.00
46336;DHT22;31365;48.858;8.530;2022-08-03T12:42:37;43.50;52.30
46336;DHT22;31365;48.858;8.530;2022-08-03T12:45:21;44.20;51.80
46336;DHT22;31365;48.858;8.530;2022-08-03T12:47:51;44.40;50.60
46336;DHT22;31365;48.858;8.530;2022-08-03T12:50:25;44.70;50.40
46336;DHT22;31365;48.858;8.530;2022-08-03T12:52:57;44.60;50.00
46336;DHT22;31365;48.858;8.530;2022-08-03T12:55:26;44.40;50.10
46336;DHT22;31365;48.858;8.530;2022-08-03T12:58:29;44.30;50.20
46336;DHT22;31365;48.858;8.530;2022-08-03T13:01:01;44.70;50.00
46336;DHT22;31365;48.858;8.530;2022-08-03T13:03:40;45.20;50.00
46336;DHT22;31365;48.858;8.530;2022-08-03T13:06:17;45.60;49.40
46336;DHT22;31365;48.858;8.530;2022-08-03T13:08:49;45.70;49.20
46336;DHT22;31365;48.858;8.530;2022-08-03T13:11:29;45.60;48.60
46336;DHT22;31365;48.858;8.530;2022-08-03T13:14:18;45.50;48.60
46336;DHT22;31365;48.858;8.530;2022-08-03T13:16:47;45.70;48.60
46336;DHT22;31365;48.858;8.530;2022-08-03T13:19:15;45.80;48.20
46336;DHT22;31365;48.858;8.530;2022-08-03T13:21:44;45.70;48.10
46336;DHT22;31365;48.858;8.530;2022-08-03T13:24:31;45.70;48.20
46336;DHT22;31365;48.858;8.530;2022-08-03T13:27:01;45.50;48.00
46336;DHT22;31365;48.858;8.530;2022-08-03T13:29:51;45.80;47.50
46336;DHT22;31365;48.858;8.530;2022-08-03T13:32:20;46.00;47.60
46336;DHT22;31365;48.858;8.530;2022-08-03T13:34:49;46.40;47.30
46336;DHT22;31365;48.858;8.530;2022-08-03T13:37:17;46.40;47.10
46336;DHT22;31365;48.858;8.530;2022-08-03T13:39:47;46.30;47.00
46336;DHT22;31365;48.858;8.530;2022-08-03T13:42:27;46.30;46.70
46336;DHT22;31365;48.858;8.530;2022-08-03T13:44:57;46.30;46.80
46336;DHT22;31365;48.858;8.530;2022-08-03T13:47:26;46.20;46.90
46336;DHT22;31365;48.858;8.530;2022-08-03T13:49:55;46.40;47.00
46336;DHT22;31365;48.858;8.530;2022-08-03T13:52:30;46.50;46.80
46336;DHT22;31365;48.858;8.530;2022-08-03T13:55:01;46.70;46.50
46336;DHT22;31365;48.858;8.530;2022-08-03T13:57:31;46.30;46.10
46336;DHT22;31365;48.858;8.530;2022-08-03T14:00:20;45.90;46.40
46336;DHT22;31365;48.858;8.530;2022-08-03T14:02:57;45.80;46.80
46336;DHT22;31365;48.858;8.530;2022-08-03T14:05:41;45.80;46.90
46336;DHT22;31365;48.858;8.530;2022-08-03T14:08:11;45.70;47.20
46336;DHT22;31365;48.858;8.530;2022-08-03T14:10:42;46.20;46.60
46336;DHT22;31365;48.858;8.530;2022-08-03T14:13:12;46.20;46.40
46336;DHT22;31365;48.858;8.530;2022-08-03T14:15:44;46.10;46.20
46336;DHT22;31365;48.858;8.530;2022-08-03T14:18:17;46.00;46.40
46336;DHT22;31365;48.858;8.530;2022-08-03T14:21:00;45.80;46.40
46336;DHT22;31365;48.858;8.530;2022-08-03T14:23:32;45.40;46.60
46336;DHT22;31365;48.858;8.530;2022-08-03T14:26:03;44.90;47.10
46336;DHT22;31365;48.858;8.530;2022-08-03T14:28:33;44.70;47.00
46336;DHT22;31365;48.858;8.530;2022-08-03T14:31:02;44.20;47.30
46336;DHT22;31365;48.858;8.530;2022-08-03T14:33:41;44.10;47.80
46336;DHT22;31365;48.858;8.530;2022-08-03T14:36:09;44.00;47.80
46336;DHT22;31365;48.858;8.530;2022-08-03T14:38:38;44.00;47.80
46336;DHT22;31365;48.858;8.530;2022-08-03T14:41:08;44.10;47.90
46336;DHT22;31365;48.858;8.530;2022-08-03T14:43:46;44.00;47.80
46336;DHT22;31365;48.858;8.530;2022-08-03T14:46:28;43.90;48.00
46336;DHT22;31365;48.858;8.530;2022-08-03T14:48:57;44.00;48.20
46336;DHT22;31365;48.858;8.530;2022-08-03T14:51:46;44.10;47.60
46336;DHT22;31365;48.858;8.530;2022-08-03T14:54:19;44.20;47.50
46336;DHT22;31365;48.858;8.530;2022-08-03T14:56:50;44.10;47.00
46336;DHT22;31365;48.858;8.530;2022-08-03T14:59:18;43.80;47.60
46336;DHT22;31365;48.858;8.530;2022-08-03T15:01:47;43.50;47.80
46336;DHT22;31365;48.858;8.530;2022-08-03T15:04:33;43.20;47.90
46336;DHT22;31365;48.858;8.530;2022-08-03T15:07:24;43.20;48.10
46336;DHT22;31365;48.858;8.530;2022-08-03T15:09:55;43.40;48.10
46336;DHT22;31365;48.858;8.530;2022-08-03T15:12:25;43.50;48.10
46336;DHT22;31365;48.858;8.530;2022-08-03T15:14:54;43.10;48.10
46336;DHT22;31365;48.858;8.530;2022-08-03T15:17:23;42.70;48.50
46336;DHT22;31365;48.858;8.530;2022-08-03T15:19:51;42.00;48.70
46336;DHT22;31365;48.858;8.530;2022-08-03T15:22:39;41.10;49.40
46336;DHT22;31365;48.858;8.530;2022-08-03T15:25:08;40.20;50.40
46336;DHT22;31365;48.858;8.530;2022-08-03T15:27:59;39.60;51.00
46336;DHT22;31365;48.858;8.530;2022-08-03T15:30:29;39.00;51.50
46336;DHT22;31365;48.858;8.530;2022-08-03T15:33:02;38.60;52.20
46336;DHT22;31365;48.858;8.530;2022-08-03T15:35:32;38.40;52.50
46336;DHT22;31365;48.858;8.530;2022-08-03T15:38:01;38.10;53.00
46336;DHT22;31365;48.858;8.530;2022-08-03T15:40:35;37.80;53.60
46336;DHT22;31365;48.858;8.530;2022-08-03T15:43:05;37.40;54.30
46336;DHT22;31365;48.858;8.530;2022-08-03T15:45:34;37.20;54.40
46336;DHT22;31365;48.858;8.530;2022-08-03T15:48:03;37.00;54.70
46336;DHT22;31365;48.858;8.530;2022-08-03T15:50:32;36.60;55.10
46336;DHT22;31365;48.858;8.530;2022-08-03T15:53:00;36.50;55.30
46336;DHT22;31365;48.858;8.530;2022-08-03T15:55:28;36.30;55.50
46336;DHT22;31365;48.858;8.530;2022-08-03T15:57:57;36.20;55.60
46336;DHT22;31365;48.858;8.530;2022-08-03T16:00:47;36.10;55.60
46336;DHT22;31365;48.858;8.530;2022-08-03T16:03:16;35.90;55.60
46336;DHT22;31365;48.858;8.530;2022-08-03T16:05:44;35.70;55.60
46336;DHT22;31365;48.858;8.530;2022-08-03T16:08:13;35.70;55.70
46336;DHT22;31365;48.858;8.530;2022-08-03T16:10:41;35.60;55.80
46336;DHT22;31365;48.858;8.530;2022-08-03T16:13:14;35.30;56.40